createdAt,value
2019-02-06T00:01:48.963Z,0.00
2019-02-06T00:02:49.192Z,0.00
2019-02-06T00:04:53.356Z,0.00
2019-02-06T00:05:53.592Z,0.00
2019-02-06T00:07:57.756Z,0.00
2019-02-06T00:08:57.989Z,0.00
2019-02-06T00:11:02.141Z,0.00
2019-02-06T00:12:02.365Z,0.00
2019-02-06T00:14:06.537Z,0.00
2019-02-06T00:15:06.793Z,0.00
2019-02-06T00:16:59.871Z,0.00
2019-02-06T00:18:00.076Z,0.00
2019-02-06T00:20:04.243Z,0.00
2019-02-06T00:21:04.479Z,0.00
2019-02-06T00:23:08.644Z,0.00
2019-02-06T00:24:08.877Z,0.00
2019-02-06T00:26:13.027Z,0.00
2019-02-06T00:27:13.258Z,0.00
2019-02-06T00:29:17.425Z,0.00
2019-02-06T00:30:17.658Z,0.00
2019-02-06T00:32:21.809Z,0.00
2019-02-06T00:33:22.034Z,0.00
2019-02-06T00:35:26.274Z,0.00
2019-02-06T00:36:26.446Z,0.00
2019-02-06T00:38:30.609Z,0.00
2019-02-06T00:39:30.845Z,0.00
2019-02-06T00:41:34.991Z,0.00
2019-02-06T00:42:35.220Z,0.00
2019-02-06T00:44:39.386Z,0.00
2019-02-06T00:45:39.619Z,0.00
2019-02-06T00:47:43.763Z,0.00
2019-02-06T00:48:43.995Z,0.00
2019-02-06T00:50:48.164Z,0.00
2019-02-06T00:51:48.400Z,0.00
2019-02-06T00:53:52.575Z,0.00
2019-02-06T00:54:52.809Z,0.00
2019-02-06T00:56:46.895Z,0.00
2019-02-06T00:57:47.131Z,0.00
2019-02-06T00:59:51.304Z,0.00
2019-02-06T01:00:51.540Z,0.00
2019-02-06T01:02:55.689Z,0.00
2019-02-06T01:03:56.027Z,0.00
2019-02-06T01:06:00.099Z,0.00
2019-02-06T01:07:00.333Z,0.00
2019-02-06T01:09:04.479Z,0.00
2019-02-06T01:10:04.718Z,0.00
2019-02-06T01:12:08.885Z,0.00
2019-02-06T01:13:09.195Z,0.00
2019-02-06T01:15:13.306Z,0.00
2019-02-06T01:16:13.529Z,0.00
2019-02-06T01:18:17.679Z,0.00
2019-02-06T01:19:17.911Z,0.00
2019-02-06T01:21:22.074Z,0.00
2019-02-06T01:22:22.304Z,0.00
2019-02-06T01:24:26.458Z,0.00
2019-02-06T01:25:26.688Z,0.00
2019-02-06T01:27:19.785Z,0.00
2019-02-06T01:28:20.018Z,0.00
2019-02-06T01:30:24.184Z,0.00
2019-02-06T01:31:24.413Z,0.00
2019-02-06T01:33:28.564Z,0.00
2019-02-06T01:34:28.803Z,0.00
2019-02-06T01:36:32.965Z,0.00
2019-02-06T01:37:33.195Z,0.00
2019-02-06T01:39:37.339Z,0.00
2019-02-06T01:40:37.571Z,0.00
2019-02-06T01:42:41.734Z,0.00
2019-02-06T01:43:41.964Z,0.00
2019-02-06T01:45:46.141Z,0.00
2019-02-06T01:46:46.363Z,0.00
2019-02-06T01:48:50.518Z,0.00
2019-02-06T01:49:50.748Z,0.00
2019-02-06T01:51:54.913Z,0.00
2019-02-06T01:52:55.142Z,0.00
2019-02-06T01:54:59.286Z,0.00
2019-02-06T01:55:59.519Z,0.00
2019-02-06T01:58:03.687Z,0.00
2019-02-06T01:59:03.910Z,0.00
2019-02-06T02:01:08.243Z,0.00
2019-02-06T02:02:08.245Z,0.00
2019-02-06T02:04:12.397Z,0.00
2019-02-06T02:05:12.634Z,0.00
2019-02-06T02:07:05.714Z,0.00
2019-02-06T02:08:05.944Z,0.00
2019-02-06T02:10:10.099Z,0.00
2019-02-06T02:11:10.319Z,0.00
2019-02-06T02:13:14.482Z,0.00
2019-02-06T02:14:14.716Z,0.00
2019-02-06T02:16:18.884Z,0.00
2019-02-06T02:17:19.114Z,0.00
2019-02-06T02:19:23.292Z,0.00
2019-02-06T02:20:23.521Z,0.00
2019-02-06T02:22:27.692Z,0.00
2019-02-06T02:23:27.939Z,0.00
2019-02-06T02:25:32.072Z,0.00
2019-02-06T02:26:32.306Z,0.00
2019-02-06T02:28:36.507Z,0.00
2019-02-06T02:29:36.707Z,0.00
2019-02-06T02:31:40.856Z,0.00
2019-02-06T02:32:41.090Z,0.00
2019-02-06T02:34:45.277Z,0.00
2019-02-06T02:35:45.493Z,0.00
2019-02-06T02:37:49.664Z,0.00
2019-02-06T02:38:49.896Z,0.00
2019-02-06T02:40:54.039Z,0.00
2019-02-06T02:41:54.304Z,0.00
2019-02-06T02:43:58.444Z,0.00
2019-02-06T02:44:58.679Z,0.00
2019-02-06T02:46:51.750Z,0.00
2019-02-06T02:47:51.978Z,0.00
2019-02-06T02:49:56.150Z,0.00
2019-02-06T02:50:56.381Z,0.00
2019-02-06T02:53:00.548Z,0.00
2019-02-06T02:54:00.784Z,0.00
2019-02-06T02:56:04.930Z,0.00
2019-02-06T02:57:05.171Z,0.00
2019-02-06T02:59:09.463Z,0.00
2019-02-06T03:00:09.569Z,0.00
2019-02-06T03:02:13.720Z,0.00
2019-02-06T03:03:13.947Z,0.00
2019-02-06T03:05:18.121Z,0.00
2019-02-06T03:06:27.700Z,0.00
2019-02-06T03:08:22.506Z,0.00
2019-02-06T03:09:22.740Z,0.00
2019-02-06T03:11:26.876Z,0.00
2019-02-06T03:12:27.111Z,0.00
2019-02-06T03:14:31.273Z,0.00
2019-02-06T03:15:31.499Z,0.00
2019-02-06T03:17:24.570Z,0.00
2019-02-06T03:18:24.802Z,0.00
2019-02-06T03:20:28.972Z,0.00
2019-02-06T03:21:29.198Z,0.00
2019-02-06T03:23:40.892Z,0.00
2019-02-06T03:24:33.550Z,0.00
2019-02-06T03:26:37.692Z,0.00
2019-02-06T03:27:37.935Z,0.00
2019-02-06T03:29:42.087Z,0.00
2019-02-06T03:30:42.319Z,0.00
2019-02-06T03:32:46.479Z,0.00
2019-02-06T03:33:46.686Z,0.00
2019-02-06T03:35:50.847Z,0.00
2019-02-06T03:36:51.254Z,0.00
2019-02-06T03:38:55.241Z,0.00
2019-02-06T03:39:55.445Z,0.00
2019-02-06T03:41:59.605Z,0.00
2019-02-06T03:42:59.872Z,0.00
2019-02-06T03:45:04.031Z,0.00
2019-02-06T03:46:04.251Z,0.00
2019-02-06T03:48:08.376Z,0.00
2019-02-06T03:49:08.612Z,0.00
2019-02-06T03:51:12.781Z,0.00
2019-02-06T03:52:13.012Z,0.00
2019-02-06T03:54:17.459Z,0.00
2019-02-06T03:55:17.464Z,0.00
2019-02-06T03:57:10.532Z,0.00
2019-02-06T03:58:10.779Z,0.00
2019-02-06T04:00:14.933Z,0.00
2019-02-06T04:01:15.165Z,0.00
2019-02-06T04:03:19.303Z,0.00
2019-02-06T04:04:19.550Z,0.00
2019-02-06T04:06:23.704Z,0.00
2019-02-06T04:07:23.941Z,0.00
2019-02-06T04:09:28.093Z,0.00
2019-02-06T04:10:28.313Z,0.00
2019-02-06T04:12:32.477Z,0.00
2019-02-06T04:13:32.708Z,0.00
2019-02-06T04:15:36.869Z,0.00
2019-02-06T04:16:37.094Z,0.00
2019-02-06T04:18:41.237Z,0.00
2019-02-06T04:19:41.460Z,0.00
2019-02-06T04:21:45.641Z,0.00
2019-02-06T04:22:45.863Z,0.00
2019-02-06T04:24:51.750Z,0.00
2019-02-06T04:25:50.244Z,0.00
2019-02-06T04:27:54.391Z,0.00
2019-02-06T04:28:54.643Z,0.00
2019-02-06T04:30:58.794Z,0.00
2019-02-06T04:31:59.023Z,0.00
2019-02-06T04:34:03.197Z,0.00
2019-02-06T04:35:03.399Z,0.00
2019-02-06T04:37:06.248Z,0.00
2019-02-06T04:37:56.722Z,0.00
2019-02-06T04:40:00.873Z,0.00
2019-02-06T04:41:01.102Z,0.00
2019-02-06T04:43:05.263Z,0.00
2019-02-06T04:44:05.496Z,0.00
2019-02-06T04:46:09.679Z,0.00
2019-02-06T04:47:09.909Z,0.00
2019-02-06T04:49:15.058Z,0.00
2019-02-06T04:50:15.284Z,0.00
2019-02-06T04:52:19.455Z,0.00
2019-02-06T04:53:19.693Z,0.00
2019-02-06T04:55:23.871Z,0.00
2019-02-06T04:56:24.084Z,0.00
2019-02-06T04:58:28.234Z,0.00
2019-02-06T04:59:28.474Z,0.00
2019-02-06T05:01:32.933Z,0.00
2019-02-06T05:02:32.816Z,0.00
2019-02-06T05:04:36.964Z,0.00
2019-02-06T05:05:37.205Z,0.00
2019-02-06T05:07:41.360Z,0.00
2019-02-06T05:08:41.590Z,0.00
2019-02-06T05:10:45.753Z,0.00
2019-02-06T05:11:45.988Z,0.00
2019-02-06T05:13:50.136Z,0.00
2019-02-06T05:14:50.364Z,0.00
2019-02-06T05:16:43.453Z,0.00
2019-02-06T05:17:43.685Z,0.00
2019-02-06T05:19:47.827Z,0.00
2019-02-06T05:20:48.094Z,0.00
2019-02-06T05:22:52.213Z,0.00
2019-02-06T05:23:52.431Z,0.00
2019-02-06T05:25:56.623Z,0.00
2019-02-06T05:26:56.836Z,0.00
2019-02-06T05:29:00.979Z,0.00
2019-02-06T05:30:01.210Z,0.00
2019-02-06T05:32:06.384Z,0.00
2019-02-06T05:33:06.619Z,0.00
2019-02-06T05:35:10.771Z,0.00
2019-02-06T05:36:11.003Z,0.00
2019-02-06T05:38:15.169Z,0.00
2019-02-06T05:39:15.398Z,0.00
2019-02-06T05:41:19.561Z,0.00
2019-02-06T05:42:19.791Z,0.00
2019-02-06T05:44:23.934Z,0.00
2019-02-06T05:45:24.171Z,0.00
2019-02-06T05:47:17.255Z,0.00
2019-02-06T05:48:17.505Z,0.00
2019-02-06T05:50:21.630Z,0.00
2019-02-06T05:51:21.865Z,0.00
2019-02-06T05:53:26.021Z,0.00
2019-02-06T05:54:26.270Z,0.00
2019-02-06T05:56:30.442Z,0.00
2019-02-06T05:57:30.653Z,0.00
2019-02-06T05:59:34.784Z,0.00
2019-02-06T06:00:35.038Z,0.00
2019-02-06T06:02:39.191Z,0.00
2019-02-06T06:03:39.406Z,0.00
2019-02-06T06:05:43.549Z,0.00
2019-02-06T06:06:43.781Z,0.00
2019-02-06T06:08:47.935Z,0.00
2019-02-06T06:09:48.166Z,0.00
2019-02-06T06:11:52.333Z,0.00
2019-02-06T06:12:52.551Z,4.00
2019-02-06T06:14:56.704Z,0.00
2019-02-06T06:15:56.933Z,4.00
2019-02-06T06:18:01.140Z,4.00
2019-02-06T06:19:01.348Z,4.00
2019-02-06T06:21:05.491Z,8.00
2019-02-06T06:22:05.727Z,8.00
2019-02-06T06:24:10.399Z,12.00
2019-02-06T06:25:10.630Z,12.00
2019-02-06T06:27:04.216Z,16.00
2019-02-06T06:28:04.458Z,20.00
2019-02-06T06:30:09.101Z,28.00
2019-02-06T06:31:09.367Z,32.00
2019-02-06T06:33:15.021Z,44.00
2019-02-06T06:34:15.258Z,52.00
2019-02-06T06:36:19.420Z,72.00
2019-02-06T06:37:19.653Z,84.00
2019-02-06T06:39:24.337Z,112.00
2019-02-06T06:40:24.573Z,124.00
2019-02-06T06:42:29.275Z,160.00
2019-02-06T06:43:29.468Z,180.00
2019-02-06T06:45:34.116Z,224.00
2019-02-06T06:46:34.356Z,248.00
2019-02-06T06:48:39.011Z,296.00
2019-02-06T06:49:39.258Z,324.00
2019-02-06T06:51:43.919Z,380.00
2019-02-06T06:52:44.118Z,404.00
2019-02-06T06:54:48.814Z,460.00
2019-02-06T06:55:49.014Z,496.00
2019-02-06T06:57:53.730Z,568.00
2019-02-06T06:58:53.922Z,604.00
2019-02-06T07:00:58.620Z,688.00
2019-02-06T07:01:58.803Z,712.00
2019-02-06T07:04:02.985Z,788.00
2019-02-06T07:05:05.579Z,840.00
2019-02-06T07:06:56.799Z,952.00
2019-02-06T07:08:08.830Z,1016.00
2019-02-06T07:10:01.706Z,1160.00
2019-02-06T07:11:01.986Z,1228.00
2019-02-06T07:13:07.569Z,1384.00
2019-02-06T07:14:07.802Z,1460.00
2019-02-06T07:16:12.444Z,1616.00
2019-02-06T07:17:12.673Z,1696.00
2019-02-06T07:19:17.349Z,1852.00
2019-02-06T07:20:17.564Z,1924.00
2019-02-06T07:22:22.228Z,2068.00
2019-02-06T07:23:22.443Z,2144.00
2019-02-06T07:25:27.110Z,2292.00
2019-02-06T07:26:27.343Z,2364.00
2019-02-06T07:28:32.025Z,2528.00
2019-02-06T07:29:32.231Z,2612.00
2019-02-06T07:31:36.907Z,2796.00
2019-02-06T07:32:37.110Z,2888.00
2019-02-06T07:34:41.793Z,3104.00
2019-02-06T07:35:42.013Z,3204.00
2019-02-06T07:37:46.664Z,3424.00
2019-02-06T07:38:46.882Z,3536.00
2019-02-06T07:40:51.553Z,3796.00
2019-02-06T07:41:51.785Z,3932.00
2019-02-06T07:43:56.497Z,4236.00
2019-02-06T07:44:56.707Z,4392.00
2019-02-06T07:46:50.252Z,4708.00
2019-02-06T07:47:50.482Z,4884.00
2019-02-06T07:49:55.151Z,5272.00
2019-02-06T07:50:55.379Z,5456.00
2019-02-06T07:53:00.021Z,5836.00
2019-02-06T07:54:00.304Z,6028.00
2019-02-06T07:56:04.926Z,6428.00
2019-02-06T07:57:05.164Z,6596.00
2019-02-06T07:59:09.846Z,6980.00
2019-02-06T08:00:10.061Z,7168.00
2019-02-06T08:02:14.721Z,7540.00
2019-02-06T08:03:14.943Z,7736.00
2019-02-06T08:05:19.623Z,8156.00
2019-02-06T08:06:19.839Z,8376.00
2019-02-06T08:08:35.263Z,8888.00
2019-02-06T08:09:24.713Z,9156.00
2019-02-06T08:11:29.396Z,9996.00
2019-02-06T08:12:29.627Z,10548.00
2019-02-06T08:14:34.289Z,11844.00
2019-02-06T08:15:34.511Z,12436.00
2019-02-06T08:17:39.178Z,13284.00
2019-02-06T08:18:39.394Z,13956.00
2019-02-06T08:20:44.082Z,14744.00
2019-02-06T08:21:44.311Z,15404.00
2019-02-06T08:23:48.470Z,16832.00
2019-02-06T08:24:48.691Z,17664.00
2019-02-06T08:26:42.315Z,19136.00
2019-02-06T08:27:42.531Z,20928.00
2019-02-06T08:29:47.193Z,24672.00
2019-02-06T08:30:47.420Z,26016.00
2019-02-06T08:32:51.578Z,23616.00
2019-02-06T08:33:51.814Z,24704.00
2019-02-06T08:35:55.983Z,25952.00
2019-02-06T08:36:56.217Z,25952.00
2019-02-06T08:39:00.369Z,27040.00
2019-02-06T08:40:00.599Z,26400.00
2019-02-06T08:42:04.772Z,23584.00
2019-02-06T08:43:05.006Z,24576.00
2019-02-06T08:45:09.177Z,22080.00
2019-02-06T08:46:09.411Z,24032.00
2019-02-06T08:48:13.562Z,25216.00
2019-02-06T08:49:13.796Z,26400.00
2019-02-06T08:51:17.967Z,27456.00
2019-02-06T08:52:18.202Z,27328.00
2019-02-06T08:54:22.375Z,27648.00
2019-02-06T08:55:22.612Z,28288.00
2019-02-06T08:57:15.695Z,31072.00
2019-02-06T08:58:15.928Z,32064.00
2019-02-06T09:00:20.098Z,29472.00
2019-02-06T09:01:20.333Z,30016.00
2019-02-06T09:03:24.490Z,31616.00
2019-02-06T09:04:24.730Z,33024.00
2019-02-06T09:06:28.906Z,28896.00
2019-02-06T09:07:29.145Z,28384.00
2019-02-06T09:09:33.323Z,28224.00
2019-02-06T09:10:33.554Z,33984.00
2019-02-06T09:12:37.732Z,42240.00
2019-02-06T09:13:37.969Z,43264.00
2019-02-06T09:15:42.142Z,41504.00
2019-02-06T09:16:42.381Z,42304.00
2019-02-06T09:18:46.536Z,46400.00
2019-02-06T09:19:46.773Z,48512.00
2019-02-06T09:21:50.956Z,45024.00
2019-02-06T09:22:51.196Z,49056.00
2019-02-06T09:24:55.379Z,54240.00
2019-02-06T09:25:57.547Z,49088.00
2019-02-06T09:27:59.766Z,48480.00
2019-02-06T09:29:00.008Z,49600.00
2019-02-06T09:31:04.178Z,46432.00
2019-02-06T09:32:04.418Z,44192.00
2019-02-06T09:34:09.684Z,41664.00
2019-02-06T09:35:08.814Z,40960.00
2019-02-06T09:37:04.960Z,45120.00
2019-02-06T09:38:02.157Z,47232.00
2019-02-06T09:40:06.319Z,45248.00
2019-02-06T09:41:06.558Z,44480.00
2019-02-06T09:43:10.747Z,44256.00
2019-02-06T09:44:10.985Z,43872.00
2019-02-06T09:46:15.657Z,44256.00
2019-02-06T09:47:15.890Z,44064.00
2019-02-06T09:49:20.066Z,43808.00
2019-02-06T09:50:20.289Z,46784.00
2019-02-06T09:52:28.128Z,47840.00
2019-02-06T09:53:24.709Z,52032.00
2019-02-06T09:55:29.372Z,54048.00
2019-02-06T09:56:29.637Z,53856.00
2019-02-06T09:58:35.319Z,60224.00
2019-02-06T09:59:35.525Z,60480.00
2019-02-06T10:01:40.262Z,58176.00
2019-02-06T10:02:40.458Z,54816.00
2019-02-06T10:04:45.209Z,53824.00
2019-02-06T10:05:45.382Z,56160.00
2019-02-06T10:07:50.126Z,55488.00
2019-02-06T10:08:50.303Z,59648.00
2019-02-06T10:10:55.019Z,61920.00
2019-02-06T10:11:55.281Z,62464.00
2019-02-06T10:14:00.918Z,58080.00
2019-02-06T10:15:01.124Z,59488.00
2019-02-06T10:16:54.796Z,63776.00
2019-02-06T10:17:55.010Z,67360.00
2019-02-06T10:19:59.633Z,63776.00
2019-02-06T10:20:59.991Z,63904.00
2019-02-06T10:23:05.567Z,56096.00
2019-02-06T10:24:05.766Z,60768.00
2019-02-06T10:26:10.458Z,59520.00
2019-02-06T10:27:10.653Z,65408.00
2019-02-06T10:29:15.372Z,80960.00
2019-02-06T10:30:15.650Z,81152.00
2019-02-06T10:32:20.449Z,76128.00
2019-02-06T10:33:20.678Z,75584.00
2019-02-06T10:35:25.300Z,81088.00
2019-02-06T10:36:25.550Z,82944.00
2019-02-06T10:38:31.277Z,80256.00
2019-02-06T10:39:34.748Z,77824.00
2019-02-06T10:41:37.134Z,82848.00
2019-02-06T10:42:37.367Z,89152.00
2019-02-06T10:44:43.023Z,92224.00
2019-02-06T10:45:43.279Z,92704.00
2019-02-06T10:47:48.030Z,93280.00
2019-02-06T10:48:48.180Z,89792.00
2019-02-06T10:50:52.853Z,92448.00
2019-02-06T10:51:53.062Z,92672.00
2019-02-06T10:53:57.271Z,101504.00
2019-02-06T10:54:57.494Z,106048.00
2019-02-06T10:56:50.626Z,97696.00
2019-02-06T10:57:50.824Z,93728.00
2019-02-06T10:59:55.572Z,96640.00
2019-02-06T11:00:55.754Z,96864.00
2019-02-06T11:02:59.945Z,99744.00
2019-02-06T11:04:00.185Z,100192.00
2019-02-06T11:06:04.871Z,95456.00
2019-02-06T11:07:08.009Z,88640.00
2019-02-06T11:09:09.803Z,79936.00
2019-02-06T11:10:10.041Z,79520.00
2019-02-06T11:12:14.709Z,79744.00
2019-02-06T11:13:14.956Z,78208.00
2019-02-06T11:15:19.146Z,80640.00
2019-02-06T11:16:19.383Z,81952.00
2019-02-06T11:18:23.574Z,77824.00
2019-02-06T11:19:23.822Z,79872.00
2019-02-06T11:21:28.510Z,75328.00
2019-02-06T11:22:28.730Z,72640.00
2019-02-06T11:24:33.421Z,44288.00
2019-02-06T11:25:33.664Z,38496.00
2019-02-06T11:27:37.833Z,32416.00
2019-02-06T11:28:38.079Z,33344.00
2019-02-06T11:30:42.271Z,34880.00
2019-02-06T11:31:42.560Z,37024.00
2019-02-06T11:33:46.782Z,55328.00
2019-02-06T11:34:46.981Z,58656.00
2019-02-06T11:36:40.074Z,54272.00
2019-02-06T11:37:40.318Z,58272.00
2019-02-06T11:39:44.505Z,66048.00
2019-02-06T11:40:44.776Z,68192.00
2019-02-06T11:42:48.979Z,71584.00
2019-02-06T11:43:49.225Z,68480.00
2019-02-06T11:45:53.459Z,71840.00
2019-02-06T11:46:53.700Z,71808.00
2019-02-06T11:48:57.949Z,79232.00
2019-02-06T11:49:58.247Z,82016.00
2019-02-06T11:52:02.388Z,88224.00
2019-02-06T11:53:02.630Z,84896.00
2019-02-06T11:55:08.651Z,80960.00
2019-02-06T11:56:07.060Z,80256.00
2019-02-06T11:58:11.223Z,82464.00
2019-02-06T11:59:11.473Z,82560.00
2019-02-06T12:01:15.659Z,80768.00
2019-02-06T12:02:15.901Z,82656.00
2019-02-06T12:04:21.123Z,87584.00
2019-02-06T12:05:21.425Z,88544.00
2019-02-06T12:07:15.083Z,90944.00
2019-02-06T12:08:15.521Z,95520.00
2019-02-06T12:10:19.583Z,92032.00
2019-02-06T12:11:19.880Z,90272.00
2019-02-06T12:13:13.417Z,91744.00
2019-02-06T12:14:13.666Z,91072.00
2019-02-06T12:16:17.902Z,93728.00
2019-02-06T12:17:18.558Z,89728.00
2019-02-06T12:19:15.427Z,84640.00
2019-02-06T12:20:15.740Z,85184.00
2019-02-06T12:22:19.807Z,83584.00
2019-02-06T12:23:31.628Z,84192.00
2019-02-06T12:25:24.308Z,90208.00
2019-02-06T12:26:24.603Z,93760.00
2019-02-06T12:28:28.843Z,101856.00
2019-02-06T12:29:29.055Z,97600.00
2019-02-06T12:31:33.862Z,94528.00
2019-02-06T12:32:34.085Z,99264.00
2019-02-06T12:34:38.781Z,101792.00
2019-02-06T12:35:39.028Z,99008.00
2019-02-06T12:37:43.718Z,94944.00
2019-02-06T12:38:53.086Z,94048.00
2019-02-06T12:40:48.660Z,94272.00
2019-02-06T12:41:48.951Z,92576.00
2019-02-06T12:43:53.605Z,84960.00
2019-02-06T12:44:53.894Z,77824.00
2019-02-06T12:46:47.504Z,68320.00
2019-02-06T12:47:47.801Z,69152.00
2019-02-06T12:49:51.997Z,81408.00
2019-02-06T12:50:52.331Z,89920.00
2019-02-06T12:52:57.616Z,86208.00
2019-02-06T12:53:57.151Z,83936.00
2019-02-06T12:56:01.905Z,76128.00
2019-02-06T12:57:02.159Z,76832.00
2019-02-06T12:59:06.826Z,71936.00
2019-02-06T13:00:07.067Z,70944.00
2019-02-06T13:02:11.795Z,72096.00
2019-02-06T13:03:12.056Z,69184.00
2019-02-06T13:05:16.295Z,70400.00
2019-02-06T13:06:16.524Z,69152.00
2019-02-06T13:08:21.221Z,74048.00
2019-02-06T13:09:21.454Z,78080.00
2019-02-06T13:11:26.154Z,82304.00
2019-02-06T13:12:27.408Z,80960.00
2019-02-06T13:14:31.078Z,82752.00
2019-02-06T13:15:31.359Z,82080.00
2019-02-06T13:17:25.995Z,89248.00
2019-02-06T13:18:26.290Z,89664.00
2019-02-06T13:20:30.492Z,86816.00
2019-02-06T13:21:30.740Z,75200.00
2019-02-06T13:23:34.931Z,70272.00
2019-02-06T13:24:35.179Z,71520.00
2019-02-06T13:26:39.378Z,79456.00
2019-02-06T13:27:39.699Z,80864.00
2019-02-06T13:29:45.345Z,84160.00
2019-02-06T13:30:45.629Z,86464.00
2019-02-06T13:32:49.864Z,85600.00
2019-02-06T13:33:50.102Z,81440.00
2019-02-06T13:35:54.325Z,79648.00
2019-02-06T13:36:54.572Z,71552.00
2019-02-06T13:38:59.245Z,67520.00
2019-02-06T13:39:59.490Z,64672.00
2019-02-06T13:42:05.449Z,59552.00
2019-02-06T13:43:03.971Z,57504.00
2019-02-06T13:45:09.220Z,52064.00
2019-02-06T13:46:09.479Z,49408.00
2019-02-06T13:48:13.743Z,47904.00
2019-02-06T13:49:13.913Z,50752.00
2019-02-06T13:51:19.860Z,53376.00
2019-02-06T13:52:19.929Z,55520.00
2019-02-06T13:54:25.667Z,63328.00
2019-02-06T13:55:25.862Z,64896.00
2019-02-06T13:57:20.444Z,75072.00
2019-02-06T13:58:20.792Z,75360.00
2019-02-06T14:00:26.419Z,52320.00
2019-02-06T14:01:26.621Z,62464.00
2019-02-06T14:03:32.287Z,77440.00
2019-02-06T14:04:32.523Z,74976.00
2019-02-06T14:06:38.325Z,69216.00
2019-02-06T14:07:38.466Z,70816.00
2019-02-06T14:09:44.272Z,49792.00
2019-02-06T14:10:44.451Z,49984.00
2019-02-06T14:12:50.174Z,52672.00
2019-02-06T14:13:50.348Z,58176.00
2019-02-06T14:15:56.133Z,51296.00
2019-02-06T14:16:56.282Z,43808.00
2019-02-06T14:19:01.955Z,60576.00
2019-02-06T14:20:02.189Z,60960.00
2019-02-06T14:22:09.903Z,55520.00
2019-02-06T14:23:08.283Z,58400.00
2019-02-06T14:25:14.836Z,59264.00
2019-02-06T14:26:15.077Z,54464.00
2019-02-06T14:28:20.791Z,53952.00
2019-02-06T14:29:20.944Z,52448.00
2019-02-06T14:31:26.761Z,43904.00
2019-02-06T14:32:26.912Z,50016.00
2019-02-06T14:34:32.623Z,43520.00
2019-02-06T14:35:32.801Z,42592.00
2019-02-06T14:37:27.815Z,46048.00
2019-02-06T14:38:27.627Z,44384.00
2019-02-06T14:40:33.306Z,24640.00
2019-02-06T14:41:33.550Z,20864.00
2019-02-06T14:43:37.734Z,23328.00
2019-02-06T14:44:37.979Z,25152.00
2019-02-06T14:46:42.146Z,24352.00
2019-02-06T14:47:42.389Z,22912.00
2019-02-06T14:49:46.569Z,24288.00
2019-02-06T14:50:49.426Z,23072.00
2019-02-06T14:52:50.999Z,19744.00
2019-02-06T14:53:51.253Z,17952.00
2019-02-06T14:55:55.400Z,25824.00
2019-02-06T14:56:55.639Z,29312.00
2019-02-06T14:58:59.824Z,36032.00
2019-02-06T15:00:00.258Z,32352.00
2019-02-06T15:02:04.225Z,46048.00
2019-02-06T15:03:04.465Z,47584.00
2019-02-06T15:05:08.646Z,42688.00
2019-02-06T15:06:08.887Z,32256.00
2019-02-06T15:08:13.063Z,28896.00
2019-02-06T15:09:13.301Z,20736.00
2019-02-06T15:11:19.827Z,17984.00
2019-02-06T15:12:17.701Z,23456.00
2019-02-06T15:14:21.884Z,33536.00
2019-02-06T15:15:22.126Z,30720.00
2019-02-06T15:17:15.214Z,29088.00
2019-02-06T15:18:15.488Z,26720.00
2019-02-06T15:20:19.637Z,26240.00
2019-02-06T15:21:19.876Z,27616.00
2019-02-06T15:23:32.666Z,26144.00
2019-02-06T15:24:24.396Z,21472.00
2019-02-06T15:26:28.548Z,18976.00
2019-02-06T15:27:28.786Z,20192.00
2019-02-06T15:29:32.961Z,23168.00
2019-02-06T15:30:34.197Z,26080.00
2019-02-06T15:32:37.399Z,23840.00
2019-02-06T15:33:37.626Z,22592.00
2019-02-06T15:35:41.782Z,16960.00
2019-02-06T15:36:42.024Z,16416.00
2019-02-06T15:38:46.195Z,14464.00
2019-02-06T15:39:46.439Z,11884.00
2019-02-06T15:41:50.595Z,9172.00
2019-02-06T15:42:50.834Z,8288.00
2019-02-06T15:44:55.009Z,6768.00
2019-02-06T15:45:57.941Z,6444.00
2019-02-06T15:47:59.401Z,6628.00
2019-02-06T15:48:59.640Z,7980.00
2019-02-06T15:51:03.821Z,7828.00
2019-02-06T15:52:04.959Z,6616.00
2019-02-06T15:54:08.230Z,5120.00
2019-02-06T15:55:08.487Z,4448.00
2019-02-06T15:57:01.551Z,3804.00
2019-02-06T15:58:01.790Z,3496.00
2019-02-06T16:00:05.960Z,3128.00
2019-02-06T16:01:06.199Z,2772.00
2019-02-06T16:03:10.345Z,2264.00
2019-02-06T16:04:10.581Z,2028.00
2019-02-06T16:06:14.760Z,1624.00
2019-02-06T16:07:14.998Z,1476.00
2019-02-06T16:09:19.174Z,1232.00
2019-02-06T16:10:19.430Z,1128.00
2019-02-06T16:12:24.097Z,936.00
2019-02-06T16:13:24.336Z,852.00
2019-02-06T16:15:29.005Z,700.00
2019-02-06T16:16:29.243Z,632.00
2019-02-06T16:18:33.403Z,516.00
2019-02-06T16:19:33.640Z,464.00
2019-02-06T16:21:37.823Z,380.00
2019-02-06T16:22:38.061Z,348.00
2019-02-06T16:24:42.746Z,284.00
2019-02-06T16:25:42.971Z,256.00
2019-02-06T16:27:47.123Z,208.00
2019-02-06T16:28:47.353Z,184.00
2019-02-06T16:30:52.022Z,144.00
2019-02-06T16:31:52.255Z,128.00
2019-02-06T16:33:56.911Z,96.00
2019-02-06T16:34:57.145Z,84.00
2019-02-06T16:36:52.736Z,64.00
2019-02-06T16:37:52.796Z,52.00
2019-02-06T16:39:58.241Z,36.00
2019-02-06T16:40:58.369Z,32.00
2019-02-06T16:43:05.309Z,24.00
2019-02-06T16:44:04.503Z,20.00
2019-02-06T16:46:11.686Z,12.00
2019-02-06T16:47:10.367Z,12.00
2019-02-06T16:49:17.928Z,8.00
2019-02-06T16:50:16.230Z,4.00
2019-02-06T16:52:21.907Z,4.00
2019-02-06T16:53:22.125Z,4.00
2019-02-06T16:55:27.803Z,4.00
2019-02-06T16:56:28.126Z,4.00
2019-02-06T16:58:35.105Z,0.00
2019-02-06T16:59:33.909Z,0.00
2019-02-06T17:01:39.576Z,0.00
2019-02-06T17:02:39.806Z,0.00
2019-02-06T17:04:45.471Z,0.00
2019-02-06T17:05:45.703Z,0.00
2019-02-06T17:07:51.351Z,0.00
2019-02-06T17:08:51.584Z,0.00
2019-02-06T17:10:57.247Z,0.00
2019-02-06T17:12:04.194Z,0.00
2019-02-06T17:14:03.122Z,0.00
2019-02-06T17:15:03.354Z,0.00
2019-02-06T17:16:57.948Z,0.00
2019-02-06T17:17:58.184Z,0.00
2019-02-06T17:20:03.850Z,0.00
2019-02-06T17:21:04.086Z,0.00
2019-02-06T17:23:08.236Z,0.00
2019-02-06T17:24:08.583Z,0.00
2019-02-06T17:26:13.147Z,0.00
2019-02-06T17:27:13.381Z,0.00
2019-02-06T17:29:17.584Z,0.00
2019-02-06T17:30:18.010Z,0.00
2019-02-06T17:32:22.695Z,0.00
2019-02-06T17:33:23.009Z,0.00
2019-02-06T17:35:27.737Z,0.00
2019-02-06T17:36:28.059Z,0.00
2019-02-06T17:38:33.724Z,0.00
2019-02-06T17:39:33.979Z,0.00
2019-02-06T17:41:38.653Z,0.00
2019-02-06T17:42:38.890Z,0.00
2019-02-06T17:44:43.622Z,0.00
2019-02-06T17:45:43.958Z,0.00
2019-02-06T17:47:48.791Z,0.00
2019-02-06T17:48:49.023Z,0.00
2019-02-06T17:50:53.301Z,0.00
2019-02-06T17:51:53.570Z,0.00
2019-02-06T17:53:58.246Z,0.00
2019-02-06T17:54:59.661Z,0.00
2019-02-06T17:58:33.859Z,0.00
2019-02-06T17:59:34.144Z,0.00
2019-02-06T18:01:38.875Z,0.00
2019-02-06T18:02:39.136Z,0.00
2019-02-06T18:04:43.825Z,0.00
2019-02-06T18:05:44.195Z,0.00
2019-02-06T18:07:48.939Z,0.00
2019-02-06T18:08:56.425Z,0.00
2019-02-06T18:10:53.933Z,0.00
2019-02-06T18:11:54.193Z,0.00
2019-02-06T18:13:59.842Z,0.00
2019-02-06T18:15:00.104Z,0.00
2019-02-06T18:16:53.681Z,0.00
2019-02-06T18:17:53.914Z,0.00
2019-02-06T18:19:59.547Z,0.00
2019-02-06T18:20:59.784Z,0.00
2019-02-06T18:23:05.452Z,0.00
2019-02-06T18:24:05.719Z,0.00
2019-02-06T18:26:11.386Z,0.00
2019-02-06T18:27:11.616Z,0.00
2019-02-06T18:29:16.276Z,0.00
2019-02-06T18:30:16.502Z,0.00
2019-02-06T18:32:21.168Z,0.00
2019-02-06T18:33:21.405Z,0.00
2019-02-06T18:35:27.045Z,0.00
2019-02-06T18:36:27.290Z,0.00
2019-02-06T18:38:32.311Z,0.00
2019-02-06T18:39:32.231Z,0.00
2019-02-06T18:41:37.875Z,0.00
2019-02-06T18:42:38.110Z,0.00
2019-02-06T18:44:43.770Z,0.00
2019-02-06T18:45:44.002Z,0.00
2019-02-06T18:47:48.681Z,0.00
2019-02-06T18:48:48.915Z,0.00
2019-02-06T18:50:54.564Z,0.00
2019-02-06T18:51:54.791Z,0.00
2019-02-06T18:53:59.481Z,0.00
2019-02-06T18:54:59.721Z,0.00
2019-02-06T18:56:54.367Z,0.00
2019-02-06T18:57:54.570Z,0.00
2019-02-06T19:00:00.346Z,0.00
2019-02-06T19:01:00.459Z,0.00
2019-02-06T19:03:06.182Z,0.00
2019-02-06T19:04:06.465Z,0.00
2019-02-06T19:06:12.081Z,0.00
2019-02-06T19:07:12.300Z,0.00
2019-02-06T19:09:17.968Z,0.00
2019-02-06T19:10:18.206Z,0.00
2019-02-06T19:12:23.884Z,0.00